createdAt,value
2022-12-03T00:01:57.830Z,0.18
2022-12-03T00:05:02.217Z,0.19
2022-12-03T00:08:06.850Z,0.19
2022-12-03T00:11:11.171Z,0.25
2022-12-03T00:14:15.130Z,0.29
2022-12-03T00:17:19.181Z,0.27
2022-12-03T00:20:24.540Z,0.28
2022-12-03T00:23:28.873Z,0.31
2022-12-03T00:26:32.875Z,0.21
2022-12-03T00:29:37.025Z,0.28
2022-12-03T00:32:41.139Z,0.28
2022-12-03T00:35:45.180Z,0.29
2022-12-03T00:38:49.580Z,0.22
2022-12-03T00:41:53.606Z,0.31
2022-12-03T00:44:57.543Z,0.25
2022-12-03T00:48:01.857Z,0.23
2022-12-03T00:51:06.340Z,0.16
2022-12-03T00:54:10.689Z,0.08
2022-12-03T00:57:15.011Z,0.10
2022-12-03T01:00:19.074Z,0.13
2022-12-03T01:03:23.191Z,0.17
2022-12-03T01:06:27.438Z,0.20
2022-12-03T01:09:31.796Z,0.18
2022-12-03T01:12:36.018Z,0.25
2022-12-03T01:15:40.416Z,0.19
2022-12-03T01:18:46.218Z,0.12
2022-12-03T01:21:51.694Z,0.20
2022-12-03T01:24:57.389Z,0.15
2022-12-03T01:28:01.512Z,0.15
2022-12-03T01:31:41.008Z,0.14
2022-12-03T01:34:47.763Z,0.13
2022-12-03T01:37:51.732Z,0.04
2022-12-03T01:40:56.025Z,0.12
2022-12-03T01:44:01.277Z,0.10
2022-12-03T01:47:07.425Z,0.00
2022-12-03T01:50:27.274Z,0.02
2022-12-03T01:53:32.399Z,0.09
2022-12-03T01:56:36.426Z,0.07
2022-12-03T01:59:40.236Z,0.03
2022-12-03T02:02:44.831Z,0.07
2022-12-03T02:05:49.223Z,0.07
2022-12-03T02:08:59.430Z,0.10
2022-12-03T02:12:03.739Z,0.11
2022-12-03T02:15:09.264Z,0.06
2022-12-03T02:18:13.302Z,0.07
2022-12-03T02:21:35.067Z,0.04
2022-12-03T02:24:43.875Z,-0.03
2022-12-03T02:27:48.536Z,0.03
2022-12-03T02:30:52.639Z,0.08
2022-12-03T02:33:56.884Z,0.03
2022-12-03T02:37:01.863Z,0.09
2022-12-03T02:40:12.202Z,0.03
2022-12-03T02:43:17.532Z,0.14
2022-12-03T02:46:21.494Z,0.20
2022-12-03T02:49:25.458Z,0.17
2022-12-03T02:52:29.872Z,0.11
2022-12-03T02:55:37.315Z,0.16
2022-12-03T02:58:44.396Z,0.12
2022-12-03T03:01:49.329Z,0.14
2022-12-03T03:04:55.026Z,0.19
2022-12-03T03:08:00.622Z,0.14
2022-12-03T03:11:05.148Z,0.11
2022-12-03T03:14:09.272Z,0.03
2022-12-03T03:17:13.401Z,0.13
2022-12-03T03:20:18.641Z,0.08
2022-12-03T03:23:23.936Z,0.03
2022-12-03T03:26:27.880Z,0.08
2022-12-03T03:29:33.731Z,0.12
2022-12-03T03:32:38.438Z,0.06
2022-12-03T03:35:44.691Z,0.04
2022-12-03T03:38:49.290Z,0.03
2022-12-03T03:41:53.409Z,0.03
2022-12-03T03:44:58.466Z,0.07
2022-12-03T03:48:02.664Z,0.02
2022-12-03T03:51:09.433Z,0.09
2022-12-03T03:54:13.959Z,-0.02
2022-12-03T03:57:18.009Z,0.03
2022-12-03T04:00:22.095Z,0.04
2022-12-03T04:03:27.131Z,0.11
2022-12-03T04:06:30.871Z,0.13
2022-12-03T04:09:34.791Z,0.11
2022-12-03T04:12:56.788Z,0.18
2022-12-03T04:16:00.905Z,0.03
2022-12-03T04:19:04.789Z,-0.02
2022-12-03T04:22:27.067Z,0.04
2022-12-03T04:25:50.034Z,-0.04
2022-12-03T04:28:54.029Z,-0.10
2022-12-03T04:32:16.819Z,-0.01
2022-12-03T04:35:39.701Z,-0.12
2022-12-03T04:38:43.633Z,-0.08
2022-12-03T04:41:47.801Z,-0.06
2022-12-03T04:44:52.689Z,-0.03
2022-12-03T04:47:56.960Z,-0.06
2022-12-03T04:51:00.811Z,-0.10
2022-12-03T04:54:04.956Z,-0.17
2022-12-03T04:57:10.143Z,-0.08
2022-12-03T05:00:14.568Z,-0.17
2022-12-03T05:03:18.595Z,-0.16
2022-12-03T05:06:23.004Z,-0.16
2022-12-03T05:09:26.949Z,-0.18
2022-12-03T05:12:30.880Z,-0.12
2022-12-03T05:15:34.915Z,-0.18
2022-12-03T05:18:38.835Z,-0.15
2022-12-03T05:21:43.074Z,-0.15
2022-12-03T05:24:47.279Z,-0.10
2022-12-03T05:27:51.436Z,-0.22
2022-12-03T05:30:55.316Z,-0.17
2022-12-03T05:33:59.303Z,-0.22
2022-12-03T05:37:03.540Z,-0.22
2022-12-03T05:40:08.232Z,-0.13
2022-12-03T05:43:12.229Z,-0.16
2022-12-03T05:46:16.440Z,-0.07
2022-12-03T05:49:20.550Z,-0.17
2022-12-03T05:52:24.485Z,-0.09
2022-12-03T05:55:28.773Z,-0.14
2022-12-03T05:58:32.398Z,-0.09
2022-12-03T06:01:36.125Z,-0.07
2022-12-03T06:04:40.213Z,-0.04
2022-12-03T06:07:44.143Z,-0.04
2022-12-03T06:10:48.387Z,0.01
2022-12-03T06:13:52.409Z,0.06
2022-12-03T06:16:56.583Z,0.01
2022-12-03T06:20:00.572Z,-0.01
2022-12-03T06:23:05.196Z,-0.07
2022-12-03T06:26:08.921Z,0.07
2022-12-03T06:29:12.749Z,-0.04
2022-12-03T06:32:16.724Z,-0.03
2022-12-03T06:35:20.873Z,0.01
2022-12-03T06:38:24.830Z,-0.05
2022-12-03T06:41:28.539Z,0.00
2022-12-03T06:44:32.276Z,0.06
2022-12-03T06:47:36.566Z,0.03
2022-12-03T06:50:40.379Z,0.02
2022-12-03T06:53:44.337Z,0.02
2022-12-03T06:56:48.107Z,-0.07
2022-12-03T06:59:52.328Z,-0.03
2022-12-03T07:02:56.920Z,-0.07
2022-12-03T07:06:00.938Z,0.03
2022-12-03T07:09:04.750Z,0.05
2022-12-03T07:12:08.741Z,-0.04
2022-12-03T07:15:12.991Z,-0.07
2022-12-03T07:18:17.084Z,-0.02
2022-12-03T07:21:21.361Z,0.08
2022-12-03T07:24:25.136Z,0.07
2022-12-03T07:27:29.081Z,0.05
2022-12-03T07:30:32.868Z,0.06
2022-12-03T07:33:36.740Z,0.00
2022-12-03T07:36:40.495Z,0.04
2022-12-03T07:39:44.332Z,0.00
2022-12-03T07:42:48.225Z,-0.07
2022-12-03T07:45:52.296Z,-0.05
2022-12-03T07:48:56.362Z,-0.04
2022-12-03T07:52:00.397Z,0.03
2022-12-03T07:55:04.887Z,0.08
2022-12-03T07:58:09.372Z,0.05
2022-12-03T08:01:13.468Z,0.09
2022-12-03T08:04:18.944Z,0.19
2022-12-03T08:07:23.095Z,0.19
2022-12-03T08:10:27.151Z,0.14
2022-12-03T08:13:34.106Z,0.17
2022-12-03T08:16:39.524Z,0.17
2022-12-03T08:19:46.867Z,0.11
2022-12-03T08:22:52.616Z,0.12
2022-12-03T08:26:02.014Z,0.19
2022-12-03T08:29:11.626Z,0.25
2022-12-03T08:32:16.051Z,0.31
2022-12-03T08:35:24.795Z,0.26
2022-12-03T08:38:29.675Z,0.24
2022-12-03T08:41:53.764Z,0.31
2022-12-03T08:45:29.346Z,0.47
2022-12-03T08:48:34.381Z,0.49
2022-12-03T08:51:38.566Z,0.54
2022-12-03T08:54:47.667Z,0.66
2022-12-03T08:57:51.692Z,0.64
2022-12-03T09:01:33.247Z,0.69
2022-12-03T09:04:47.429Z,0.68
2022-12-03T09:07:51.546Z,0.77
2022-12-03T09:10:55.571Z,0.84
2022-12-03T09:13:59.731Z,0.66
2022-12-03T09:17:03.750Z,0.74
2022-12-03T09:20:08.351Z,0.65
2022-12-03T09:23:12.559Z,0.57
2022-12-03T09:26:16.686Z,0.61
2022-12-03T09:29:20.615Z,0.53
2022-12-03T09:32:25.025Z,0.55
2022-12-03T09:35:29.140Z,0.51
2022-12-03T09:38:33.416Z,0.56
2022-12-03T09:41:37.565Z,0.47
2022-12-03T09:44:42.285Z,0.52
2022-12-03T09:47:49.203Z,0.50
2022-12-03T09:50:52.979Z,0.45
2022-12-03T09:53:59.683Z,0.64
2022-12-03T09:57:04.294Z,0.58
2022-12-03T10:00:19.784Z,0.66
2022-12-03T10:03:29.999Z,0.63
2022-12-03T10:06:34.460Z,0.64
2022-12-03T10:09:38.614Z,0.74
2022-12-03T10:12:42.831Z,0.83
2022-12-03T10:15:48.683Z,0.92
2022-12-03T10:18:55.486Z,0.88
2022-12-03T10:21:59.390Z,1.07
2022-12-03T10:25:12.807Z,1.26
2022-12-03T10:28:26.780Z,1.12
2022-12-03T10:31:35.461Z,1.06
2022-12-03T10:34:41.804Z,1.12
2022-12-03T10:37:58.361Z,1.11
2022-12-03T10:41:20.496Z,1.05
2022-12-03T10:44:26.012Z,1.02
2022-12-03T10:47:30.310Z,1.04
2022-12-03T10:50:34.751Z,1.12
2022-12-03T10:53:40.871Z,1.10
2022-12-03T10:56:46.993Z,1.10
2022-12-03T10:59:51.333Z,1.30
2022-12-03T11:02:57.138Z,1.34
2022-12-03T11:06:03.480Z,1.33
2022-12-03T11:09:17.989Z,1.26
2022-12-03T11:12:28.289Z,1.22
2022-12-03T11:15:44.900Z,1.29
2022-12-03T11:18:54.977Z,1.43
2022-12-03T11:22:04.955Z,1.48
2022-12-03T11:25:27.338Z,1.39
2022-12-03T11:28:33.079Z,1.38
2022-12-03T11:31:47.690Z,1.44
2022-12-03T11:34:51.906Z,1.49
2022-12-03T11:38:35.080Z,1.50
2022-12-03T11:41:39.297Z,1.47
2022-12-03T11:44:43.408Z,1.41
2022-12-03T11:48:00.157Z,1.43
2022-12-03T11:51:04.107Z,1.44
2022-12-03T11:54:16.495Z,1.49
2022-12-03T11:57:39.631Z,1.35
2022-12-03T12:00:56.015Z,1.25
2022-12-03T12:04:00.676Z,1.32
2022-12-03T12:07:04.820Z,1.34
2022-12-03T12:10:09.293Z,1.44
2022-12-03T12:13:27.600Z,1.48
2022-12-03T12:16:52.512Z,1.48
2022-12-03T12:20:27.004Z,1.43
2022-12-03T12:23:31.192Z,1.40
2022-12-03T12:26:35.102Z,1.48
2022-12-03T12:29:41.129Z,1.29
2022-12-03T12:32:50.155Z,1.17
2022-12-03T12:35:54.268Z,1.29
2022-12-03T12:38:59.766Z,1.27
2022-12-03T12:42:19.152Z,1.19
2022-12-03T12:45:28.540Z,1.17
2022-12-03T12:48:35.248Z,1.10
2022-12-03T12:51:47.765Z,1.14
2022-12-03T12:54:52.025Z,1.13
2022-12-03T12:58:02.225Z,1.01
2022-12-03T13:01:11.427Z,1.04
2022-12-03T13:04:24.087Z,0.96
2022-12-03T13:07:28.186Z,1.01
2022-12-03T13:10:39.038Z,0.95
2022-12-03T13:13:44.525Z,1.04
2022-12-03T13:16:51.099Z,1.11
2022-12-03T13:20:05.421Z,1.01
2022-12-03T13:23:31.576Z,1.01
2022-12-03T13:26:39.705Z,0.97
2022-12-03T13:29:44.857Z,1.00
2022-12-03T13:32:49.332Z,1.07
2022-12-03T13:35:55.597Z,1.05
2022-12-03T13:38:59.808Z,1.17
2022-12-03T13:42:42.294Z,1.16
2022-12-03T13:45:47.634Z,1.14
2022-12-03T13:48:52.072Z,1.23
2022-12-03T13:51:56.147Z,1.23
2022-12-03T13:55:03.434Z,1.21
2022-12-03T13:58:07.444Z,1.21
2022-12-03T14:01:11.831Z,1.20
2022-12-03T14:04:16.148Z,1.23
2022-12-03T14:07:20.535Z,1.25
2022-12-03T14:10:24.691Z,1.29
2022-12-03T14:13:29.052Z,1.28
2022-12-03T14:16:33.711Z,1.20
2022-12-03T14:19:38.238Z,1.23
2022-12-03T14:22:42.166Z,1.15
2022-12-03T14:25:45.908Z,1.10
2022-12-03T14:28:50.016Z,1.08
2022-12-03T14:31:54.170Z,1.01
2022-12-03T14:34:58.045Z,1.03
2022-12-03T14:38:02.113Z,0.95
2022-12-03T14:41:26.296Z,0.94
2022-12-03T14:44:30.374Z,0.95
2022-12-03T14:47:34.463Z,0.95
2022-12-03T14:50:38.612Z,0.89
2022-12-03T14:53:42.580Z,0.92
2022-12-03T14:56:46.746Z,0.87
2022-12-03T14:59:51.592Z,0.79
2022-12-03T15:02:55.694Z,0.76
2022-12-03T15:06:00.655Z,0.79
2022-12-03T15:09:05.162Z,0.75
2022-12-03T15:12:09.376Z,0.79
2022-12-03T15:15:13.785Z,0.83
2022-12-03T15:18:18.509Z,0.78
2022-12-03T15:21:22.619Z,0.83
2022-12-03T15:24:26.873Z,0.77
2022-12-03T15:27:30.929Z,0.85
2022-12-03T15:30:37.978Z,0.88
2022-12-03T15:33:41.824Z,0.91
2022-12-03T15:36:45.958Z,0.88
2022-12-03T15:39:50.187Z,0.87
2022-12-03T15:42:54.472Z,0.87
2022-12-03T15:45:58.584Z,0.79
2022-12-03T15:49:02.637Z,0.89
2022-12-03T15:52:07.901Z,0.96
2022-12-03T15:55:11.946Z,0.86
2022-12-03T15:58:15.977Z,0.80
2022-12-03T16:01:19.937Z,0.91
2022-12-03T16:04:24.094Z,0.83
2022-12-03T16:07:28.458Z,0.87
2022-12-03T16:10:32.885Z,0.80
2022-12-03T16:13:36.959Z,0.79
2022-12-03T16:16:41.196Z,0.80
2022-12-03T16:19:46.046Z,0.75
2022-12-03T16:22:51.086Z,0.89
2022-12-03T16:25:55.032Z,0.91
2022-12-03T16:28:58.993Z,0.91
2022-12-03T16:32:03.281Z,0.81
2022-12-03T16:35:07.447Z,0.87
2022-12-03T16:38:11.543Z,0.91
2022-12-03T16:41:15.662Z,0.88
2022-12-03T16:44:31.191Z,0.85
2022-12-03T16:47:35.248Z,0.79
2022-12-03T16:50:39.938Z,0.83
2022-12-03T16:53:44.076Z,0.87
2022-12-03T16:56:47.998Z,0.71
2022-12-03T16:59:52.327Z,0.67
2022-12-03T17:02:56.787Z,0.71
2022-12-03T17:06:01.770Z,0.79
2022-12-03T17:09:05.801Z,0.83
2022-12-03T17:12:09.645Z,0.81
2022-12-03T17:15:14.057Z,0.74
2022-12-03T17:18:18.273Z,0.75
2022-12-03T17:21:22.550Z,0.75
2022-12-03T17:24:26.676Z,0.69
2022-12-03T17:27:30.707Z,0.76
2022-12-03T17:30:35.081Z,0.74
2022-12-03T17:33:40.149Z,0.80
2022-12-03T17:36:44.449Z,0.90
2022-12-03T17:39:48.530Z,0.86
2022-12-03T17:42:52.836Z,0.89
2022-12-03T17:45:57.231Z,0.82
2022-12-03T17:49:01.146Z,0.84
2022-12-03T17:52:05.564Z,0.86
2022-12-03T17:55:12.750Z,0.89
2022-12-03T17:58:20.308Z,0.86
2022-12-03T18:01:24.481Z,0.89
2022-12-03T18:04:28.696Z,0.86
2022-12-03T18:07:33.240Z,0.87
2022-12-03T18:10:37.409Z,0.96
2022-12-03T18:13:41.555Z,0.94
2022-12-03T18:16:45.673Z,0.94
2022-12-03T18:19:49.973Z,0.92
2022-12-03T18:22:54.152Z,0.93
2022-12-03T18:25:58.632Z,0.95
2022-12-03T18:29:02.739Z,0.97
2022-12-03T18:32:27.246Z,0.89
2022-12-03T18:35:32.532Z,0.85
2022-12-03T18:38:36.267Z,0.91
2022-12-03T18:41:40.432Z,0.87
2022-12-03T18:44:49.448Z,0.84
2022-12-03T18:47:54.774Z,0.89
2022-12-03T18:50:58.881Z,0.82
2022-12-03T18:54:02.849Z,0.80
2022-12-03T18:57:07.746Z,0.85
2022-12-03T19:00:13.813Z,0.93
2022-12-03T19:03:18.340Z,0.90
2022-12-03T19:06:22.281Z,0.90
2022-12-03T19:09:26.549Z,0.88
2022-12-03T19:12:31.103Z,0.93
2022-12-03T19:15:39.343Z,1.01
2022-12-03T19:18:43.807Z,0.97
2022-12-03T19:21:47.923Z,0.90
2022-12-03T19:24:51.966Z,0.88
2022-12-03T19:27:57.016Z,0.91
2022-12-03T19:31:10.284Z,0.94
2022-12-03T19:34:14.312Z,0.87
2022-12-03T19:37:20.639Z,0.90
2022-12-03T19:40:24.946Z,0.90
2022-12-03T19:43:29.588Z,0.87
2022-12-03T19:46:33.623Z,0.96
2022-12-03T19:49:37.622Z,0.98
2022-12-03T19:52:41.515Z,1.00
2022-12-03T19:55:46.445Z,0.90
2022-12-03T19:58:54.603Z,0.94
2022-12-03T20:01:58.365Z,0.97
2022-12-03T20:05:02.910Z,1.00
2022-12-03T20:08:08.030Z,1.00
2022-12-03T20:11:16.571Z,1.01
2022-12-03T20:14:20.874Z,0.96
2022-12-03T20:17:24.681Z,1.01
2022-12-03T20:20:28.771Z,1.10
2022-12-03T20:23:32.906Z,1.11
2022-12-03T20:26:36.954Z,1.04
2022-12-03T20:29:41.177Z,1.00
2022-12-03T20:32:45.751Z,1.13
2022-12-03T20:35:53.930Z,1.06
2022-12-03T20:39:00.931Z,1.07
2022-12-03T20:42:05.061Z,1.01
2022-12-03T20:45:09.651Z,1.03
2022-12-03T20:48:13.984Z,1.02
2022-12-03T20:51:20.329Z,0.99
2022-12-03T20:54:24.647Z,0.97
2022-12-03T20:57:28.571Z,1.10
2022-12-03T21:00:32.565Z,1.04
2022-12-03T21:03:36.837Z,1.12
2022-12-03T21:06:42.328Z,1.09
2022-12-03T21:09:46.503Z,1.11
2022-12-03T21:12:50.471Z,1.13
2022-12-03T21:16:06.913Z,1.06
2022-12-03T21:19:14.171Z,1.07
2022-12-03T21:22:22.327Z,1.09
2022-12-03T21:25:26.404Z,1.10
2022-12-03T21:28:30.823Z,1.06
2022-12-03T21:31:37.198Z,1.11
2022-12-03T21:34:42.236Z,1.07
2022-12-03T21:37:46.389Z,1.15
2022-12-03T21:40:51.265Z,1.08
2022-12-03T21:43:55.761Z,1.07
2022-12-03T21:47:12.968Z,1.18
2022-12-03T21:50:17.889Z,1.16
2022-12-03T21:53:21.838Z,1.16
2022-12-03T21:56:25.937Z,1.03
2022-12-03T21:59:30.122Z,1.09
2022-12-03T22:02:34.355Z,1.06
2022-12-03T22:05:38.814Z,1.21
2022-12-03T22:08:43.219Z,1.16
2022-12-03T22:11:47.092Z,1.19
2022-12-03T22:14:51.168Z,1.19
2022-12-03T22:17:55.367Z,1.27
2022-12-03T22:21:03.523Z,1.22
2022-12-03T22:24:07.894Z,1.20
2022-12-03T22:27:13.120Z,1.17
2022-12-03T22:30:17.490Z,1.19
2022-12-03T22:33:21.655Z,1.22
2022-12-03T22:36:25.865Z,1.27
2022-12-03T22:39:29.776Z,1.15
2022-12-03T22:42:33.867Z,1.18
2022-12-03T22:45:38.043Z,1.17
2022-12-03T22:48:43.390Z,1.20
2022-12-03T22:51:47.655Z,1.23
2022-12-03T22:54:51.609Z,1.19
2022-12-03T22:57:55.978Z,1.12
2022-12-03T23:01:02.852Z,1.16
2022-12-03T23:04:08.866Z,1.25
2022-12-03T23:07:12.982Z,1.28
2022-12-03T23:10:17.287Z,1.18
2022-12-03T23:13:21.145Z,1.34
2022-12-03T23:16:28.142Z,1.33
2022-12-03T23:19:32.529Z,1.29
2022-12-03T23:22:36.782Z,1.25
2022-12-03T23:25:40.710Z,1.27
2022-12-03T23:28:46.206Z,1.20
2022-12-03T23:31:50.047Z,1.29
2022-12-03T23:34:54.030Z,1.22
2022-12-03T23:37:58.288Z,1.19
2022-12-03T23:41:07.081Z,1.34
2022-12-03T23:44:10.990Z,1.21
2022-12-03T23:47:14.953Z,1.28
2022-12-03T23:50:19.239Z,1.25
2022-12-03T23:53:23.383Z,1.27
2022-12-03T23:56:30.218Z,1.22
2022-12-03T23:59:34.519Z,1.33
